Bookmark and Share
Track history (hours):
 

Vega Nikolas

Last reported at 2014-Apr-17 04:04 UTC. Time now 2014-Apr-19 17:13 UTC.
Position N 39°43' W 073°04'.

Length 139 m; draft 7.8 m.

Type: Ship (hazmat cat A). MMSI: 636091613.

NotesDate/timePositionNaut miles runAvg speedWind from/ knotsBaromVisibWave heightAir tempDewpointWater temp
2014-Apr-17 04:04N 39°43' W 073°04'916.6
2014-Apr-17 03:33N 39°50' W 073°10'4314.0
2014-Apr-17 00:28N 40°24' W 073°46'10 9.2
2014-Apr-16 23:24N 40°30' W 073°56'1112.9
2014-Apr-16 22:33N 40°39' W 074°03'3 2.6
2014-Apr-16 21:33N 40°41' W 074°01'0 0.0
2014-Apr-16 20:33N 40°41' W 074°01'0 0.0
2014-Apr-16 19:33N 40°41' W 074°01'0 0.0
2014-Apr-16 18:33N 40°41' W 074°01'0 0.0
2014-Apr-16 17:33N 40°41' W 074°01'0 0.0
2014-Apr-16 16:33N 40°41' W 074°01'0 0.0
2014-Apr-16 15:33N 40°41' W 074°01'0 0.0
2014-Apr-16 14:32N 40°41' W 074°01'0 0.0
2014-Apr-16 13:29N 40°41' W 074°01'0 0.0
2014-Apr-16 12:31N 40°41' W 074°01'0 0.0
2014-Apr-16 11:31N 40°41' W 074°01'0 0.0
2014-Apr-16 10:33N 40°41' W 074°01'6 6.1
2014-Apr-16 09:34N 40°35' W 074°02'1111.1
2014-Apr-16 08:33N 40°28' W 073°51'6 5.7
2014-Apr-16 07:33N 40°25' W 073°45'6310.4
2014-Apr-16 01:27N 39°55' W 072°32'1212.8
2014-Apr-16 00:30N 39°44' W 072°24'1414.5
2014-Apr-15 23:33N 39°31' W 072°18'1915.0
2014-Apr-15 22:17N 39°14' W 072°08'3215.4
2014-Apr-15 20:12N 38°45' W 071°50'1015.1
2014-Apr-15 19:33N 38°36' W 071°45'1515.1
2014-Apr-15 18:34N 38°23' W 071°37'1515.1
2014-Apr-15 17:33N 38°09' W 071°29'1413.7
2014-Apr-15 16:31N 37°55' W 071°24'  

Dump ship's entire track history

sailing weather and tide predictions

Vega Nikolas — A8QD2 — position and weather